Esil, Kazakhstan
Current Conditions -  °F | °C
As of 12:00 AM on Friday 31 Oct 2014 (Local Time) from UAUU Reporting Station
Few Clouds Few Clouds  
Wind Chill: 20°   Ceiling: Unl
Heat Index: 28°   Visibility: 4mi
Dew Point: 27°   Wind: 9mph
Humidity: 93%   Direction: 220°SW
Pressure: 30.21"   Gusts: NA
Location:  51.96°N, 66.38°E
Report Text: UAUU 301800Z 22004MPS 7000 FEW200 M02/M03 Q1023 R15/CLRD60NOSIG RMK QFE751/1001
Loading
Personal Weather Stations






























Interactive Weather Map
Tropical Storm Tracking
New forecast layout! Learn more

10-Day Weather Forecast

Advertisements
Track Severe Weather on mobile